sensor_id;sensor_type;location;lat;lon;timestamp;pressure;altitude;pressure_sealevel;temperature;humidity
33155;BME280;19511;42.682;23.332;2023-06-22T00:01:58;95597.69;;;17.35;100.00
33155;BME280;19511;42.682;23.332;2023-06-22T00:04:24;95604.84;;;17.36;100.00
33155;BME280;19511;42.682;23.332;2023-06-22T00:06:54;95557.91;;;17.02;100.00
33155;BME280;19511;42.682;23.332;2023-06-22T00:09:20;95606.59;;;17.30;100.00
33155;BME280;19511;42.682;23.332;2023-06-22T00:11:48;95608.84;;;17.35;100.00
33155;BME280;19511;42.682;23.332;2023-06-22T00:14:14;95606.59;;;17.30;100.00
33155;BME280;19511;42.682;23.332;2023-06-22T00:16:39;95601.00;;;17.17;100.00
33155;BME280;19511;42.682;23.332;2023-06-22T00:19:05;95605.13;;;17.25;100.00
33155;BME280;19511;42.682;23.332;2023-06-22T00:21:30;95611.19;;;17.24;100.00
33155;BME280;19511;42.682;23.332;2023-06-22T00:23:56;95602.22;;;17.16;100.00
33155;BME280;19511;42.682;23.332;2023-06-22T00:26:22;95600.91;;;17.34;100.00
33155;BME280;19511;42.682;23.332;2023-06-22T00:28:48;95600.38;;;17.52;100.00
33155;BME280;19511;42.682;23.332;2023-06-22T00:31:13;95531.66;;;17.12;100.00
33155;BME280;19511;42.682;23.332;2023-06-22T00:33:39;95580.13;;;17.35;100.00
33155;BME280;19511;42.682;23.332;2023-06-22T00:36:07;95585.72;;;17.35;100.00
33155;BME280;19511;42.682;23.332;2023-06-22T00:38:33;95590.59;;;17.30;100.00
33155;BME280;19511;42.682;23.332;2023-06-22T00:41:03;95590.03;;;17.23;100.00
33155;BME280;19511;42.682;23.332;2023-06-22T00:43:32;95589.03;;;17.17;100.00
33155;BME280;19511;42.682;23.332;2023-06-22T00:45:57;95581.63;;;17.10;100.00
33155;BME280;19511;42.682;23.332;2023-06-22T00:48:23;95593.59;;;17.10;100.00
33155;BME280;19511;42.682;23.332;2023-06-22T00:50:55;95589.31;;;17.06;100.00
33155;BME280;19511;42.682;23.332;2023-06-22T00:53:21;95525.22;;;16.56;100.00
33155;BME280;19511;42.682;23.332;2023-06-22T00:55:47;95594.44;;;16.94;100.00
33155;BME280;19511;42.682;23.332;2023-06-22T00:58:17;95588.41;;;16.96;100.00
33155;BME280;19511;42.682;23.332;2023-06-22T01:00:47;95586.56;;;16.89;100.00
33155;BME280;19511;42.682;23.332;2023-06-22T01:03:12;95532.41;;;16.41;100.00
33155;BME280;19511;42.682;23.332;2023-06-22T01:05:38;95610.44;;;16.94;100.00
33155;BME280;19511;42.682;23.332;2023-06-22T01:10:53;95583.88;;;16.86;100.00
33155;BME280;19511;42.682;23.332;2023-06-22T01:16:22;95598.72;;;16.99;100.00
33155;BME280;19511;42.682;23.332;2023-06-22T01:18:52;95593.97;;;16.96;100.00
33155;BME280;19511;42.682;23.332;2023-06-22T01:21:21;95603.59;;;16.95;100.00
33155;BME280;19511;42.682;23.332;2023-06-22T01:24:22;95609.38;;;16.88;100.00
33155;BME280;19511;42.682;23.332;2023-06-22T01:29:17;95602.84;;;16.78;100.00
33155;BME280;19511;42.682;23.332;2023-06-22T01:31:45;95553.44;;;16.29;100.00
33155;BME280;19511;42.682;23.332;2023-06-22T01:34:11;95602.78;;;16.65;100.00
33155;BME280;19511;42.682;23.332;2023-06-22T01:36:38;95558.16;;;16.32;100.00
33155;BME280;19511;42.682;23.332;2023-06-22T01:39:05;95597.38;;;16.58;100.00
33155;BME280;19511;42.682;23.332;2023-06-22T01:41:34;95611.78;;;16.56;100.00
33155;BME280;19511;42.682;23.332;2023-06-22T01:44:00;95616.81;;;16.61;100.00
33155;BME280;19511;42.682;23.332;2023-06-22T01:46:26;95609.75;;;16.57;100.00
33155;BME280;19511;42.682;23.332;2023-06-22T01:48:52;95615.63;;;16.62;100.00
33155;BME280;19511;42.682;23.332;2023-06-22T01:51:19;95612.38;;;16.64;100.00
33155;BME280;19511;42.682;23.332;2023-06-22T01:53:44;95619.78;;;16.54;100.00
33155;BME280;19511;42.682;23.332;2023-06-22T01:56:10;95577.63;;;16.19;100.00
33155;BME280;19511;42.682;23.332;2023-06-22T01:58:42;95620.78;;;16.47;100.00
33155;BME280;19511;42.682;23.332;2023-06-22T02:01:13;95630.28;;;16.50;100.00
33155;BME280;19511;42.682;23.332;2023-06-22T02:04:02;95631.16;;;16.47;100.00
33155;BME280;19511;42.682;23.332;2023-06-22T02:06:37;95579.88;;;16.08;100.00
33155;BME280;19511;42.682;23.332;2023-06-22T02:09:14;95589.72;;;16.12;100.00
33155;BME280;19511;42.682;23.332;2023-06-22T02:11:42;95643.19;;;16.44;100.00
33155;BME280;19511;42.682;23.332;2023-06-22T02:14:14;95630.66;;;16.36;100.00
33155;BME280;19511;42.682;23.332;2023-06-22T02:16:41;95622.81;;;16.30;100.00
33155;BME280;19511;42.682;23.332;2023-06-22T02:19:10;95617.22;;;16.30;100.00
33155;BME280;19511;42.682;23.332;2023-06-22T02:21:36;95618.75;;;16.31;100.00
33155;BME280;19511;42.682;23.332;2023-06-22T02:24:02;95630.81;;;16.28;100.00
33155;BME280;19511;42.682;23.332;2023-06-22T02:26:27;95624.03;;;16.29;100.00
33155;BME280;19511;42.682;23.332;2023-06-22T02:28:53;95552.22;;;15.80;100.00
33155;BME280;19511;42.682;23.332;2023-06-22T02:31:23;95618.44;;;16.29;100.00
33155;BME280;19511;42.682;23.332;2023-06-22T02:33:58;95608.31;;;16.19;100.00
33155;BME280;19511;42.682;23.332;2023-06-22T02:36:25;95608.03;;;16.13;100.00
33155;BME280;19511;42.682;23.332;2023-06-22T02:38:59;95622.72;;;16.18;100.00
33155;BME280;19511;42.682;23.332;2023-06-22T02:41:26;95631.19;;;16.14;100.00
33155;BME280;19511;42.682;23.332;2023-06-22T02:43:55;95612.56;;;16.07;100.00
33155;BME280;19511;42.682;23.332;2023-06-22T02:46:25;95628.03;;;16.12;100.00
33155;BME280;19511;42.682;23.332;2023-06-22T02:48:50;95630.44;;;16.10;100.00
33155;BME280;19511;42.682;23.332;2023-06-22T02:51:16;95599.84;;;15.90;100.00
33155;BME280;19511;42.682;23.332;2023-06-22T02:53:41;95638.22;;;16.02;100.00
33155;BME280;19511;42.682;23.332;2023-06-22T02:56:09;95638.81;;;16.10;100.00
33155;BME280;19511;42.682;23.332;2023-06-22T02:58:38;95633.69;;;16.08;100.00
33155;BME280;19511;42.682;23.332;2023-06-22T03:01:08;95638.81;;;16.10;100.00
33155;BME280;19511;42.682;23.332;2023-06-22T03:03:39;95638.31;;;16.15;100.00
33155;BME280;19511;42.682;23.332;2023-06-22T03:06:04;95639.97;;;16.12;100.00
33155;BME280;19511;42.682;23.332;2023-06-22T03:08:30;95636.75;;;16.14;100.00
33155;BME280;19511;42.682;23.332;2023-06-22T03:10:56;95638.31;;;16.15;100.00
33155;BME280;19511;42.682;23.332;2023-06-22T03:13:21;95648.25;;;16.32;100.00
33155;BME280;19511;42.682;23.332;2023-06-22T03:15:48;95652.69;;;16.46;100.00
33155;BME280;19511;42.682;23.332;2023-06-22T03:18:16;95560.00;;;15.89;100.00
33155;BME280;19511;42.682;23.332;2023-06-22T03:20:41;95601.84;;;16.22;100.00
33155;BME280;19511;42.682;23.332;2023-06-22T03:23:07;95658.13;;;16.54;100.00
33155;BME280;19511;42.682;23.332;2023-06-22T03:25:35;95664.47;;;16.54;100.00
33155;BME280;19511;42.682;23.332;2023-06-22T03:28:01;95655.25;;;16.57;100.00
33155;BME280;19511;42.682;23.332;2023-06-22T03:30:28;95645.97;;;16.60;100.00
33155;BME280;19511;42.682;23.332;2023-06-22T03:33:04;95652.06;;;16.72;100.00
33155;BME280;19511;42.682;23.332;2023-06-22T03:35:34;95656.00;;;16.74;100.00
33155;BME280;19511;42.682;23.332;2023-06-22T03:37:59;95666.19;;;16.81;100.00
33155;BME280;19511;42.682;23.332;2023-06-22T03:40:25;95671.44;;;16.79;100.00
33155;BME280;19511;42.682;23.332;2023-06-22T03:42:54;95674.06;;;16.86;100.00
33155;BME280;19511;42.682;23.332;2023-06-22T03:45:19;95669.34;;;16.83;100.00
33155;BME280;19511;42.682;23.332;2023-06-22T03:47:48;95672.81;;;16.87;100.00
33155;BME280;19511;42.682;23.332;2023-06-22T03:50:13;95678.34;;;16.91;100.00
33155;BME280;19511;42.682;23.332;2023-06-22T03:52:47;95689.78;;;16.96;100.00
33155;BME280;19511;42.682;23.332;2023-06-22T03:55:13;95689.59;;;17.04;100.00
33155;BME280;19511;42.682;23.332;2023-06-22T03:57:38;95684.72;;;17.08;100.00
33155;BME280;19511;42.682;23.332;2023-06-22T04:00:08;95682.16;;;17.13;100.00
33155;BME280;19511;42.682;23.332;2023-06-22T04:02:35;95680.63;;;17.25;100.00
33155;BME280;19511;42.682;23.332;2023-06-22T04:05:00;95636.50;;;16.87;100.00
33155;BME280;19511;42.682;23.332;2023-06-22T04:07:26;95672.44;;;17.18;100.00
33155;BME280;19511;42.682;23.332;2023-06-22T04:09:51;95674.38;;;17.34;100.00
33155;BME280;19511;42.682;23.332;2023-06-22T04:12:17;95673.63;;;17.34;100.00
33155;BME280;19511;42.682;23.332;2023-06-22T04:14:45;95670.72;;;17.37;100.00
33155;BME280;19511;42.682;23.332;2023-06-22T04:17:11;95658.00;;;17.49;100.00
33155;BME280;19511;42.682;23.332;2023-06-22T04:19:39;95611.91;;;17.41;100.00
33155;BME280;19511;42.682;23.332;2023-06-22T04:22:05;95646.22;;;18.22;100.00
33155;BME280;19511;42.682;23.332;2023-06-22T04:24:32;95658.59;;;18.73;100.00
33155;BME280;19511;42.682;23.332;2023-06-22T04:26:58;95636.25;;;18.82;100.00
33155;BME280;19511;42.682;23.332;2023-06-22T04:29:26;95602.81;;;18.88;100.00
33155;BME280;19511;42.682;23.332;2023-06-22T04:31:54;95622.63;;;19.29;100.00
33155;BME280;19511;42.682;23.332;2023-06-22T04:34:21;95634.41;;;19.36;100.00
33155;BME280;19511;42.682;23.332;2023-06-22T04:36:46;95616.91;;;19.10;100.00
33155;BME280;19511;42.682;23.332;2023-06-22T04:39:12;95651.06;;;19.18;100.00
33155;BME280;19511;42.682;23.332;2023-06-22T04:41:39;95655.44;;;19.19;100.00
33155;BME280;19511;42.682;23.332;2023-06-22T04:44:15;95641.03;;;19.30;100.00
33155;BME280;19511;42.682;23.332;2023-06-22T04:46:50;95653.22;;;19.36;100.00
33155;BME280;19511;42.682;23.332;2023-06-22T04:49:20;95645.25;;;19.12;100.00
33155;BME280;19511;42.682;23.332;2023-06-22T04:51:45;95628.06;;;18.88;100.00
33155;BME280;19511;42.682;23.332;2023-06-22T04:54:11;95608.25;;;18.82;100.00
33155;BME280;19511;42.682;23.332;2023-06-22T04:56:36;95655.50;;;19.28;100.00
33155;BME280;19511;42.682;23.332;2023-06-22T04:59:03;95619.31;;;19.21;100.00
33155;BME280;19511;42.682;23.332;2023-06-22T05:01:29;95662.69;;;19.51;100.00
33155;BME280;19511;42.682;23.332;2023-06-22T05:03:59;95662.56;;;19.33;100.00
33155;BME280;19511;42.682;23.332;2023-06-22T05:06:27;95629.34;;;19.09;100.00
33155;BME280;19511;42.682;23.332;2023-06-22T05:08:57;95666.88;;;19.47;100.00
33155;BME280;19511;42.682;23.332;2023-06-22T05:11:24;95661.41;;;19.43;100.00
33155;BME280;19511;42.682;23.332;2023-06-22T05:13:50;95668.03;;;19.58;100.00
33155;BME280;19511;42.682;23.332;2023-06-22T05:16:15;95607.38;;;19.30;100.00
33155;BME280;19511;42.682;23.332;2023-06-22T05:18:41;95653.16;;;19.71;100.00
33155;BME280;19511;42.682;23.332;2023-06-22T05:21:07;95653.63;;;19.69;100.00
33155;BME280;19511;42.682;23.332;2023-06-22T05:23:32;95659.75;;;19.77;100.00
33155;BME280;19511;42.682;23.332;2023-06-22T05:26:00;95664.22;;;19.97;100.00
33155;BME280;19511;42.682;23.332;2023-06-22T05:28:26;95666.06;;;19.90;100.00
33155;BME280;19511;42.682;23.332;2023-06-22T05:30:53;95661.53;;;19.84;100.00
33155;BME280;19511;42.682;23.332;2023-06-22T05:33:19;95609.59;;;19.57;100.00
33155;BME280;19511;42.682;23.332;2023-06-22T05:35:44;95675.47;;;19.97;100.00
33155;BME280;19511;42.682;23.332;2023-06-22T05:38:10;95673.22;;;20.14;100.00
33155;BME280;19511;42.682;23.332;2023-06-22T05:40:35;95625.66;;;19.88;100.00
33155;BME280;19511;42.682;23.332;2023-06-22T05:43:00;95677.94;;;20.26;100.00
33155;BME280;19511;42.682;23.332;2023-06-22T05:45:27;95689.38;;;20.32;100.00
33155;BME280;19511;42.682;23.332;2023-06-22T05:47:54;95681.94;;;20.47;100.00
33155;BME280;19511;42.682;23.332;2023-06-22T05:50:20;95685.38;;;20.51;100.00
33155;BME280;19511;42.682;23.332;2023-06-22T05:52:45;95691.47;;;20.50;100.00
33155;BME280;19511;42.682;23.332;2023-06-22T05:55:11;95681.81;;;20.69;100.00
33155;BME280;19511;42.682;23.332;2023-06-22T05:57:39;95678.91;;;20.73;100.00
33155;BME280;19511;42.682;23.332;2023-06-22T06:00:05;95677.00;;;20.70;100.00
33155;BME280;19511;42.682;23.332;2023-06-22T06:02:35;95676.91;;;20.92;100.00
33155;BME280;19511;42.682;23.332;2023-06-22T06:05:01;95614.81;;;20.59;100.00
33155;BME280;19511;42.682;23.332;2023-06-22T06:07:28;95631.06;;;20.64;100.00
33155;BME280;19511;42.682;23.332;2023-06-22T06:09:54;95667.41;;;21.08;100.00
33155;BME280;19511;42.682;23.332;2023-06-22T06:12:19;95669.72;;;21.19;100.00
33155;BME280;19511;42.682;23.332;2023-06-22T06:14:45;95633.81;;;20.95;100.00
33155;BME280;19511;42.682;23.332;2023-06-22T06:17:10;95658.94;;;21.45;100.00
33155;BME280;19511;42.682;23.332;2023-06-22T06:19:42;95650.66;;;21.42;100.00
33155;BME280;19511;42.682;23.332;2023-06-22T06:22:08;95655.69;;;21.56;100.00
33155;BME280;19511;42.682;23.332;2023-06-22T06:24:34;95660.47;;;21.83;100.00
33155;BME280;19511;42.682;23.332;2023-06-22T06:26:59;95659.63;;;22.01;100.00
33155;BME280;19511;42.682;23.332;2023-06-22T06:29:24;95597.66;;;21.68;100.00
33155;BME280;19511;42.682;23.332;2023-06-22T06:31:50;95629.78;;;21.95;100.00
33155;BME280;19511;42.682;23.332;2023-06-22T06:34:15;95603.22;;;21.87;100.00
33155;BME280;19511;42.682;23.332;2023-06-22T06:36:41;95643.66;;;22.50;100.00
33155;BME280;19511;42.682;23.332;2023-06-22T06:39:07;95640.09;;;22.74;100.00
33155;BME280;19511;42.682;23.332;2023-06-22T06:41:34;95582.66;;;22.38;100.00
33155;BME280;19511;42.682;23.332;2023-06-22T06:43:59;95638.28;;;22.86;100.00
33155;BME280;19511;42.682;23.332;2023-06-22T06:46:25;95633.97;;;23.00;100.00
33155;BME280;19511;42.682;23.332;2023-06-22T06:48:51;95621.59;;;22.97;100.00
33155;BME280;19511;42.682;23.332;2023-06-22T06:51:16;95635.53;;;23.01;100.00
33155;BME280;19511;42.682;23.332;2023-06-22T06:53:41;95631.84;;;23.10;100.00
33155;BME280;19511;42.682;23.332;2023-06-22T06:56:07;95591.09;;;23.11;100.00
33155;BME280;19511;42.682;23.332;2023-06-22T06:58:35;95632.72;;;23.40;100.00
33155;BME280;19511;42.682;23.332;2023-06-22T07:01:02;95638.56;;;23.37;100.00
33155;BME280;19511;42.682;23.332;2023-06-22T07:03:28;95572.84;;;23.36;100.00
33155;BME280;19511;42.682;23.332;2023-06-22T07:05:53;95621.53;;;23.61;100.00
33155;BME280;19511;42.682;23.332;2023-06-22T07:08:19;95620.38;;;23.68;100.00
33155;BME280;19511;42.682;23.332;2023-06-22T07:10:44;95584.06;;;23.60;100.00
33155;BME280;19511;42.682;23.332;2023-06-22T07:13:10;95619.53;;;24.06;100.00
33155;BME280;19511;42.682;23.332;2023-06-22T07:15:35;95570.41;;;23.89;100.00
33155;BME280;19511;42.682;23.332;2023-06-22T07:18:01;95623.28;;;24.33;100.00
33155;BME280;19511;42.682;23.332;2023-06-22T07:20:26;95621.81;;;24.23;100.00
33155;BME280;19511;42.682;23.332;2023-06-22T07:22:52;95585.34;;;24.25;100.00
33155;BME280;19511;42.682;23.332;2023-06-22T07:25:18;95629.91;;;24.66;100.00
33155;BME280;19511;42.682;23.332;2023-06-22T07:27:45;95623.66;;;24.76;100.00
33155;BME280;19511;42.682;23.332;2023-06-22T07:30:11;95595.00;;;24.69;100.00
33155;BME280;19511;42.682;23.332;2023-06-22T07:32:37;95611.91;;;24.84;100.00
33155;BME280;19511;42.682;23.332;2023-06-22T07:35:04;95623.66;;;24.76;100.00
33155;BME280;19511;42.682;23.332;2023-06-22T07:37:30;95609.84;;;24.84;100.00
33155;BME280;19511;42.682;23.332;2023-06-22T07:39:59;95573.56;;;24.62;100.00
33155;BME280;19511;42.682;23.332;2023-06-22T07:42:25;95592.31;;;25.01;100.00
33155;BME280;19511;42.682;23.332;2023-06-22T07:44:52;95620.75;;;25.12;100.00
33155;BME280;19511;42.682;23.332;2023-06-22T07:47:18;95626.88;;;25.31;100.00
33155;BME280;19511;42.682;23.332;2023-06-22T07:49:45;95574.53;;;25.21;100.00
33155;BME280;19511;42.682;23.332;2023-06-22T07:52:10;95620.44;;;25.78;100.00
33155;BME280;19511;42.682;23.332;2023-06-22T07:54:36;95613.56;;;25.90;100.00
33155;BME280;19511;42.682;23.332;2023-06-22T07:57:02;95619.97;;;26.11;100.00
33155;BME280;19511;42.682;23.332;2023-06-22T07:59:27;95616.53;;;26.33;100.00
33155;BME280;19511;42.682;23.332;2023-06-22T08:01:57;95612.91;;;26.27;100.00
33155;BME280;19511;42.682;23.332;2023-06-22T08:04:26;95594.84;;;26.30;100.00
33155;BME280;19511;42.682;23.332;2023-06-22T08:06:56;95594.19;;;26.47;100.00
33155;BME280;19511;42.682;23.332;2023-06-22T08:09:28;95600.69;;;26.15;100.00
33155;BME280;19511;42.682;23.332;2023-06-22T08:11:53;95598.28;;;26.40;100.00
33155;BME280;19511;42.682;23.332;2023-06-22T08:14:20;95602.41;;;26.77;100.00
33155;BME280;19511;42.682;23.332;2023-06-22T08:16:52;95598.88;;;26.99;100.00
33155;BME280;19511;42.682;23.332;2023-06-22T08:19:17;95596.13;;;26.72;100.00
33155;BME280;19511;42.682;23.332;2023-06-22T08:21:43;95594.56;;;26.71;100.00
33155;BME280;19511;42.682;23.332;2023-06-22T08:24:12;95592.69;;;27.00;100.00
33155;BME280;19511;42.682;23.332;2023-06-22T08:26:38;95579.28;;;27.07;100.00
33155;BME280;19511;42.682;23.332;2023-06-22T08:29:04;95579.09;;;27.27;100.00
33155;BME280;19511;42.682;23.332;2023-06-22T08:31:30;95530.75;;;27.04;100.00
33155;BME280;19511;42.682;23.332;2023-06-22T08:33:56;95529.25;;;27.20;100.00
33155;BME280;19511;42.682;23.332;2023-06-22T08:36:21;95530.31;;;27.34;100.00
33155;BME280;19511;42.682;23.332;2023-06-22T08:38:51;95578.66;;;27.63;100.00
33155;BME280;19511;42.682;23.332;2023-06-22T08:41:23;95578.41;;;27.66;100.00
33155;BME280;19511;42.682;23.332;2023-06-22T08:43:48;95583.06;;;27.58;100.00
33155;BME280;19511;42.682;23.332;2023-06-22T08:46:13;95590.03;;;27.63;100.00
33155;BME280;19511;42.682;23.332;2023-06-22T08:48:39;95525.06;;;27.04;100.00
33155;BME280;19511;42.682;23.332;2023-06-22T08:51:04;95521.31;;;26.64;100.00
33155;BME280;19511;42.682;23.332;2023-06-22T08:53:30;95582.19;;;27.29;100.00
33155;BME280;19511;42.682;23.332;2023-06-22T08:55:55;95564.13;;;27.27;100.00
33155;BME280;19511;42.682;23.332;2023-06-22T08:58:31;95572.72;;;27.66;100.00
33155;BME280;19511;42.682;23.332;2023-06-22T09:00:58;95565.50;;;27.88;100.00
33155;BME280;19511;42.682;23.332;2023-06-22T09:03:26;95521.06;;;27.74;100.00
33155;BME280;19511;42.682;23.332;2023-06-22T09:05:54;95551.59;;;28.13;100.00
33155;BME280;19511;42.682;23.332;2023-06-22T09:08:23;95558.81;;;28.25;100.00
33155;BME280;19511;42.682;23.332;2023-06-22T09:10:48;95556.16;;;28.50;100.00
33155;BME280;19511;42.682;23.332;2023-06-22T09:13:16;95558.22;;;28.55;100.00
33155;BME280;19511;42.682;23.332;2023-06-22T09:15:46;95566.22;;;28.68;100.00
33155;BME280;19511;42.682;23.332;2023-06-22T09:18:13;95559.25;;;28.58;100.00
33155;BME280;19511;42.682;23.332;2023-06-22T09:20:39;95563.66;;;28.47;100.00
33155;BME280;19511;42.682;23.332;2023-06-22T09:23:04;95545.84;;;28.35;100.00
33155;BME280;19511;42.682;23.332;2023-06-22T09:25:30;95561.34;;;28.46;100.00
33155;BME280;19511;42.682;23.332;2023-06-22T09:28:00;95526.22;;;28.15;100.00
33155;BME280;19511;42.682;23.332;2023-06-22T09:30:25;95561.31;;;28.57;100.00
33155;BME280;19511;42.682;23.332;2023-06-22T09:32:50;95553.56;;;28.58;100.00
33155;BME280;19511;42.682;23.332;2023-06-22T09:35:19;95553.78;;;28.65;100.00
33155;BME280;19511;42.682;23.332;2023-06-22T09:37:45;95570.28;;;28.95;100.00
33155;BME280;19511;42.682;23.332;2023-06-22T09:40:11;95553.72;;;28.94;100.00
33155;BME280;19511;42.682;23.332;2023-06-22T09:42:38;95558.56;;;29.10;100.00
33155;BME280;19511;42.682;23.332;2023-06-22T09:45:08;95549.81;;;28.97;100.00
33155;BME280;19511;42.682;23.332;2023-06-22T09:47:33;95564.44;;;29.24;100.00
33155;BME280;19511;42.682;23.332;2023-06-22T09:49:59;95552.81;;;29.22;100.00
33155;BME280;19511;42.682;23.332;2023-06-22T09:52:25;95509.75;;;28.83;100.00
33155;BME280;19511;42.682;23.332;2023-06-22T09:54:50;95548.31;;;28.90;100.00
33155;BME280;19511;42.682;23.332;2023-06-22T09:57:16;95536.66;;;28.94;100.00
33155;BME280;19511;42.682;23.332;2023-06-22T09:59:42;95532.16;;;29.10;100.00
33155;BME280;19511;42.682;23.332;2023-06-22T10:02:10;95536.06;;;29.01;100.00
33155;BME280;19511;42.682;23.332;2023-06-22T10:04:35;95541.50;;;29.05;100.00
33155;BME280;19511;42.682;23.332;2023-06-22T10:07:02;95530.53;;;29.20;100.00
33155;BME280;19511;42.682;23.332;2023-06-22T10:09:27;95542.19;;;29.16;100.00
33155;BME280;19511;42.682;23.332;2023-06-22T10:11:53;95531.59;;;29.17;100.00
33155;BME280;19511;42.682;23.332;2023-06-22T10:14:19;95522.69;;;29.38;100.00
33155;BME280;19511;42.682;23.332;2023-06-22T10:16:50;95527.03;;;29.44;100.00
33155;BME280;19511;42.682;23.332;2023-06-22T10:19:16;95518.47;;;29.50;100.00
33155;BME280;19511;42.682;23.332;2023-06-22T10:21:49;95520.41;;;29.67;100.00
33155;BME280;19511;42.682;23.332;2023-06-22T10:24:15;95524.63;;;29.60;100.00
33155;BME280;19511;42.682;23.332;2023-06-22T10:26:41;95496.16;;;29.54;100.00
33155;BME280;19511;42.682;23.332;2023-06-22T10:29:10;95524.16;;;29.50;100.00
33155;BME280;19511;42.682;23.332;2023-06-22T10:31:39;95514.34;;;29.45;100.00
33155;BME280;19511;42.682;23.332;2023-06-22T10:34:08;95518.88;;;29.65;100.00
33155;BME280;19511;42.682;23.332;2023-06-22T10:36:37;95513.00;;;29.88;100.00
33155;BME280;19511;42.682;23.332;2023-06-22T10:39:02;95501.03;;;29.95;100.00
33155;BME280;19511;42.682;23.332;2023-06-22T10:41:28;95500.69;;;29.69;100.00
33155;BME280;19511;42.682;23.332;2023-06-22T10:43:59;95508.13;;;29.77;100.00
33155;BME280;19511;42.682;23.332;2023-06-22T10:46:25;95466.00;;;29.64;97.63
33155;BME280;19511;42.682;23.332;2023-06-22T10:48:51;95502.44;;;30.08;100.00
33155;BME280;19511;42.682;23.332;2023-06-22T10:51:22;95451.22;;;29.66;100.00
33155;BME280;19511;42.682;23.332;2023-06-22T10:53:56;95494.25;;;29.99;97.81
33155;BME280;19511;42.682;23.332;2023-06-22T10:56:21;95506.00;;;29.89;100.00
33155;BME280;19511;42.682;23.332;2023-06-22T10:58:47;95499.84;;;30.10;94.85
33155;BME280;19511;42.682;23.332;2023-06-22T11:01:15;95447.44;;;29.88;99.96
33155;BME280;19511;42.682;23.332;2023-06-22T11:03:41;95496.63;;;30.19;94.42
33155;BME280;19511;42.682;23.332;2023-06-22T11:06:16;95502.84;;;30.23;88.33
33155;BME280;19511;42.682;23.332;2023-06-22T11:08:46;95491.59;;;30.06;89.67
33155;BME280;19511;42.682;23.332;2023-06-22T11:11:12;95491.72;;;30.20;90.67
33155;BME280;19511;42.682;23.332;2023-06-22T11:13:44;95491.81;;;30.33;91.62
33155;BME280;19511;42.682;23.332;2023-06-22T11:16:14;95449.75;;;30.15;91.17
33155;BME280;19511;42.682;23.332;2023-06-22T11:18:43;95487.28;;;30.43;88.81
33155;BME280;19511;42.682;23.332;2023-06-22T11:21:13;95473.66;;;30.36;91.88
33155;BME280;19511;42.682;23.332;2023-06-22T11:23:42;95479.66;;;30.33;96.58
33155;BME280;19511;42.682;23.332;2023-06-22T11:26:07;95462.31;;;30.06;97.71
33155;BME280;19511;42.682;23.332;2023-06-22T11:28:33;95469.19;;;30.16;94.21
33155;BME280;19511;42.682;23.332;2023-06-22T11:31:01;95461.69;;;30.13;93.04
33155;BME280;19511;42.682;23.332;2023-06-22T11:33:33;95470.56;;;30.09;100.00
33155;BME280;19511;42.682;23.332;2023-06-22T11:36:02;95440.03;;;29.74;92.55
33155;BME280;19511;42.682;23.332;2023-06-22T11:38:28;95464.00;;;29.90;97.90
33155;BME280;19511;42.682;23.332;2023-06-22T11:41:08;95474.44;;;29.81;93.88
33155;BME280;19511;42.682;23.332;2023-06-22T11:43:34;95466.94;;;29.78;91.44
33155;BME280;19511;42.682;23.332;2023-06-22T11:46:08;95460.91;;;29.57;100.00
33155;BME280;19511;42.682;23.332;2023-06-22T11:48:36;95457.06;;;29.49;100.00
33155;BME280;19511;42.682;23.332;2023-06-22T11:51:05;95417.03;;;29.36;100.00
33155;BME280;19511;42.682;23.332;2023-06-22T11:53:31;95449.09;;;29.42;100.00
33155;BME280;19511;42.682;23.332;2023-06-22T11:55:58;95441.28;;;29.48;99.78
33155;BME280;19511;42.682;23.332;2023-06-22T11:58:27;95456.81;;;29.47;100.00
33155;BME280;19511;42.682;23.332;2023-06-22T12:00:57;95458.66;;;29.75;96.27
33155;BME280;19511;42.682;23.332;2023-06-22T12:03:26;95461.56;;;29.69;99.15
33155;BME280;19511;42.682;23.332;2023-06-22T12:05:52;95458.16;;;29.46;99.33
33155;BME280;19511;42.682;23.332;2023-06-22T12:08:21;95456.97;;;29.24;100.00
33155;BME280;19511;42.682;23.332;2023-06-22T12:10:49;95456.25;;;29.54;99.75
33155;BME280;19511;42.682;23.332;2023-06-22T12:13:15;95462.13;;;29.68;100.00
33155;BME280;19511;42.682;23.332;2023-06-22T12:15:41;95464.47;;;29.63;99.06
33155;BME280;19511;42.682;23.332;2023-06-22T12:18:10;95472.63;;;29.48;100.00
33155;BME280;19511;42.682;23.332;2023-06-22T12:20:43;95465.03;;;29.20;100.00
33155;BME280;19511;42.682;23.332;2023-06-22T12:23:14;95458.97;;;28.99;100.00
33155;BME280;19511;42.682;23.332;2023-06-22T12:25:46;95470.72;;;28.73;100.00
33155;BME280;19511;42.682;23.332;2023-06-22T12:28:18;95492.81;;;28.49;100.00
33155;BME280;19511;42.682;23.332;2023-06-22T12:30:51;95509.13;;;28.43;100.00
33155;BME280;19511;42.682;23.332;2023-06-22T12:33:17;95510.47;;;28.08;100.00
33155;BME280;19511;42.682;23.332;2023-06-22T12:35:46;95468.38;;;27.50;100.00
33155;BME280;19511;42.682;23.332;2023-06-22T12:38:14;95529.34;;;27.54;100.00
33155;BME280;19511;42.682;23.332;2023-06-22T12:40:40;95479.16;;;27.12;100.00
33155;BME280;19511;42.682;23.332;2023-06-22T12:43:09;95531.97;;;26.86;100.00
33155;BME280;19511;42.682;23.332;2023-06-22T12:45:35;95463.53;;;26.07;100.00
33155;BME280;19511;42.682;23.332;2023-06-22T12:48:07;95515.00;;;26.37;100.00
33155;BME280;19511;42.682;23.332;2023-06-22T12:50:41;95529.41;;;26.34;100.00